sensor_id;sensor_type;location;lat;lon;timestamp;P1;durP1;ratioP1;P2;durP2;ratioP2
42200;SDS011;27869;51.442;7.540;2023-07-20T00:00:05;10.85;;;4.35;;
42200;SDS011;27869;51.442;7.540;2023-07-20T00:02:33;12.45;;;4.22;;
42200;SDS011;27869;51.442;7.540;2023-07-20T00:05:00;12.48;;;4.30;;
42200;SDS011;27869;51.442;7.540;2023-07-20T00:07:27;11.80;;;4.50;;
42200;SDS011;27869;51.442;7.540;2023-07-20T00:09:55;11.35;;;4.70;;
42200;SDS011;27869;51.442;7.540;2023-07-20T00:12:22;13.30;;;4.70;;
42200;SDS011;27869;51.442;7.540;2023-07-20T00:14:49;14.35;;;5.70;;
42200;SDS011;27869;51.442;7.540;2023-07-20T00:17:18;14.95;;;5.05;;
42200;SDS011;27869;51.442;7.540;2023-07-20T00:19:45;14.68;;;4.72;;
42200;SDS011;27869;51.442;7.540;2023-07-20T00:22:12;11.57;;;4.70;;
42200;SDS011;27869;51.442;7.540;2023-07-20T00:24:39;12.70;;;4.70;;
42200;SDS011;27869;51.442;7.540;2023-07-20T00:27:07;12.20;;;5.07;;
42200;SDS011;27869;51.442;7.540;2023-07-20T00:29:34;13.55;;;5.05;;
42200;SDS011;27869;51.442;7.540;2023-07-20T00:32:01;13.70;;;5.03;;
42200;SDS011;27869;51.442;7.540;2023-07-20T00:34:30;13.43;;;5.05;;
42200;SDS011;27869;51.442;7.540;2023-07-20T00:36:56;13.98;;;5.25;;
42200;SDS011;27869;51.442;7.540;2023-07-20T00:39:23;13.02;;;5.00;;
42200;SDS011;27869;51.442;7.540;2023-07-20T00:41:50;14.20;;;5.05;;
42200;SDS011;27869;51.442;7.540;2023-07-20T00:44:18;11.45;;;4.68;;
42200;SDS011;27869;51.442;7.540;2023-07-20T00:46:45;13.75;;;5.18;;
42200;SDS011;27869;51.442;7.540;2023-07-20T00:49:13;13.68;;;4.82;;
42200;SDS011;27869;51.442;7.540;2023-07-20T00:51:40;12.38;;;4.93;;
42200;SDS011;27869;51.442;7.540;2023-07-20T00:54:10;11.90;;;4.43;;
42200;SDS011;27869;51.442;7.540;2023-07-20T00:56:37;13.40;;;5.00;;
42200;SDS011;27869;51.442;7.540;2023-07-20T00:59:05;12.75;;;4.75;;
42200;SDS011;27869;51.442;7.540;2023-07-20T01:01:34;13.57;;;4.53;;
42200;SDS011;27869;51.442;7.540;2023-07-20T01:04:01;15.77;;;4.60;;
42200;SDS011;27869;51.442;7.540;2023-07-20T01:06:29;12.40;;;4.72;;
42200;SDS011;27869;51.442;7.540;2023-07-20T01:09:08;13.65;;;4.53;;
42200;SDS011;27869;51.442;7.540;2023-07-20T01:11:43;14.57;;;5.00;;
42200;SDS011;27869;51.442;7.540;2023-07-20T01:14:14;10.93;;;4.47;;
42200;SDS011;27869;51.442;7.540;2023-07-20T01:16:44;12.80;;;4.70;;
42200;SDS011;27869;51.442;7.540;2023-07-20T01:19:12;14.55;;;4.63;;
42200;SDS011;27869;51.442;7.540;2023-07-20T01:21:43;12.43;;;4.80;;
42200;SDS011;27869;51.442;7.540;2023-07-20T01:24:31;11.30;;;4.03;;
42200;SDS011;27869;51.442;7.540;2023-07-20T01:27:26;12.07;;;4.68;;
42200;SDS011;27869;51.442;7.540;2023-07-20T01:30:18;12.77;;;4.30;;
42200;SDS011;27869;51.442;7.540;2023-07-20T01:33:11;10.32;;;3.80;;
42200;SDS011;27869;51.442;7.540;2023-07-20T01:35:39;11.60;;;3.85;;
42200;SDS011;27869;51.442;7.540;2023-07-20T01:38:09;11.15;;;4.20;;
42200;SDS011;27869;51.442;7.540;2023-07-20T01:43:06;12.15;;;4.18;;
42200;SDS011;27869;51.442;7.540;2023-07-20T01:45:32;12.73;;;4.57;;
42200;SDS011;27869;51.442;7.540;2023-07-20T01:47:59;11.77;;;4.20;;
42200;SDS011;27869;51.442;7.540;2023-07-20T01:50:27;12.90;;;4.43;;
42200;SDS011;27869;51.442;7.540;2023-07-20T01:52:54;10.63;;;4.00;;
42200;SDS011;27869;51.442;7.540;2023-07-20T01:55:21;14.45;;;3.92;;
42200;SDS011;27869;51.442;7.540;2023-07-20T01:57:48;12.90;;;4.38;;
42200;SDS011;27869;51.442;7.540;2023-07-20T02:00:15;14.55;;;4.50;;
42200;SDS011;27869;51.442;7.540;2023-07-20T02:02:44;14.13;;;4.30;;
42200;SDS011;27869;51.442;7.540;2023-07-20T02:05:11;11.10;;;4.25;;
42200;SDS011;27869;51.442;7.540;2023-07-20T02:07:39;11.38;;;3.90;;
42200;SDS011;27869;51.442;7.540;2023-07-20T02:10:06;13.52;;;4.72;;
42200;SDS011;27869;51.442;7.540;2023-07-20T02:12:33;12.20;;;4.22;;
42200;SDS011;27869;51.442;7.540;2023-07-20T02:15:00;11.18;;;3.78;;
42200;SDS011;27869;51.442;7.540;2023-07-20T02:17:27;11.43;;;4.18;;
42200;SDS011;27869;51.442;7.540;2023-07-20T02:19:55;13.30;;;4.78;;
42200;SDS011;27869;51.442;7.540;2023-07-20T02:22:22;14.07;;;4.50;;
42200;SDS011;27869;51.442;7.540;2023-07-20T02:24:50;11.40;;;4.43;;
42200;SDS011;27869;51.442;7.540;2023-07-20T02:27:17;12.00;;;4.15;;
42200;SDS011;27869;51.442;7.540;2023-07-20T02:29:44;9.85;;;3.70;;
42200;SDS011;27869;51.442;7.540;2023-07-20T02:32:11;13.18;;;4.70;;
42200;SDS011;27869;51.442;7.540;2023-07-20T02:34:38;13.65;;;4.65;;
42200;SDS011;27869;51.442;7.540;2023-07-20T02:37:05;13.52;;;4.93;;
42200;SDS011;27869;51.442;7.540;2023-07-20T02:39:32;12.07;;;4.40;;
42200;SDS011;27869;51.442;7.540;2023-07-20T02:42:00;11.15;;;4.70;;
42200;SDS011;27869;51.442;7.540;2023-07-20T02:44:27;12.82;;;4.72;;
42200;SDS011;27869;51.442;7.540;2023-07-20T02:46:54;14.45;;;4.72;;
42200;SDS011;27869;51.442;7.540;2023-07-20T02:49:20;13.07;;;5.45;;
42200;SDS011;27869;51.442;7.540;2023-07-20T02:51:47;12.45;;;4.63;;
42200;SDS011;27869;51.442;7.540;2023-07-20T02:54:14;15.60;;;5.90;;
42200;SDS011;27869;51.442;7.540;2023-07-20T02:56:41;15.07;;;5.25;;
42200;SDS011;27869;51.442;7.540;2023-07-20T02:59:09;14.13;;;6.03;;
42200;SDS011;27869;51.442;7.540;2023-07-20T03:01:36;13.80;;;5.70;;
42200;SDS011;27869;51.442;7.540;2023-07-20T03:04:03;14.60;;;5.55;;
42200;SDS011;27869;51.442;7.540;2023-07-20T03:06:30;13.95;;;6.35;;
42200;SDS011;27869;51.442;7.540;2023-07-20T03:09:01;15.93;;;5.80;;
42200;SDS011;27869;51.442;7.540;2023-07-20T03:11:28;13.55;;;6.15;;
42200;SDS011;27869;51.442;7.540;2023-07-20T03:13:55;14.55;;;5.03;;
42200;SDS011;27869;51.442;7.540;2023-07-20T03:16:24;14.32;;;5.30;;
42200;SDS011;27869;51.442;7.540;2023-07-20T03:21:18;12.23;;;5.03;;
42200;SDS011;27869;51.442;7.540;2023-07-20T03:23:45;16.02;;;4.35;;
42200;SDS011;27869;51.442;7.540;2023-07-20T03:26:12;11.82;;;4.13;;
42200;SDS011;27869;51.442;7.540;2023-07-20T03:28:39;11.25;;;4.35;;
42200;SDS011;27869;51.442;7.540;2023-07-20T03:31:05;14.00;;;3.65;;
42200;SDS011;27869;51.442;7.540;2023-07-20T03:33:34;11.90;;;3.65;;
42200;SDS011;27869;51.442;7.540;2023-07-20T03:36:01;12.25;;;3.78;;
42200;SDS011;27869;51.442;7.540;2023-07-20T03:38:27;10.82;;;3.03;;
42200;SDS011;27869;51.442;7.540;2023-07-20T03:40:55;12.40;;;3.60;;
42200;SDS011;27869;51.442;7.540;2023-07-20T03:43:23;10.63;;;3.17;;
42200;SDS011;27869;51.442;7.540;2023-07-20T03:45:50;9.15;;;2.90;;
42200;SDS011;27869;51.442;7.540;2023-07-20T03:48:18;7.40;;;2.40;;
42200;SDS011;27869;51.442;7.540;2023-07-20T03:50:48;9.05;;;2.70;;
42200;SDS011;27869;51.442;7.540;2023-07-20T03:53:16;9.57;;;2.85;;
42200;SDS011;27869;51.442;7.540;2023-07-20T03:55:44;8.43;;;2.83;;
42200;SDS011;27869;51.442;7.540;2023-07-20T03:58:11;7.80;;;2.63;;
42200;SDS011;27869;51.442;7.540;2023-07-20T04:00:39;9.80;;;3.05;;
42200;SDS011;27869;51.442;7.540;2023-07-20T04:03:06;10.65;;;3.08;;
42200;SDS011;27869;51.442;7.540;2023-07-20T04:05:32;9.05;;;3.20;;
42200;SDS011;27869;51.442;7.540;2023-07-20T04:08:01;11.25;;;3.30;;
42200;SDS011;27869;51.442;7.540;2023-07-20T04:10:27;9.68;;;3.17;;
42200;SDS011;27869;51.442;7.540;2023-07-20T04:12:54;9.20;;;3.00;;
42200;SDS011;27869;51.442;7.540;2023-07-20T04:15:21;11.75;;;3.67;;
42200;SDS011;27869;51.442;7.540;2023-07-20T04:17:48;9.32;;;3.20;;
42200;SDS011;27869;51.442;7.540;2023-07-20T04:20:15;12.07;;;3.67;;
42200;SDS011;27869;51.442;7.540;2023-07-20T04:22:43;10.32;;;3.53;;
42200;SDS011;27869;51.442;7.540;2023-07-20T04:25:11;13.07;;;4.13;;
42200;SDS011;27869;51.442;7.540;2023-07-20T04:27:38;11.88;;;4.47;;
42200;SDS011;27869;51.442;7.540;2023-07-20T04:30:06;11.77;;;5.05;;
42200;SDS011;27869;51.442;7.540;2023-07-20T04:35:00;12.23;;;4.47;;
42200;SDS011;27869;51.442;7.540;2023-07-20T04:37:28;13.77;;;5.20;;
42200;SDS011;27869;51.442;7.540;2023-07-20T04:39:54;13.73;;;5.53;;
42200;SDS011;27869;51.442;7.540;2023-07-20T04:42:23;13.57;;;6.10;;
42200;SDS011;27869;51.442;7.540;2023-07-20T04:44:49;13.02;;;5.65;;
42200;SDS011;27869;51.442;7.540;2023-07-20T04:47:16;16.27;;;6.32;;
42200;SDS011;27869;51.442;7.540;2023-07-20T04:49:43;14.77;;;7.13;;
42200;SDS011;27869;51.442;7.540;2023-07-20T04:52:10;15.50;;;7.65;;
42200;SDS011;27869;51.442;7.540;2023-07-20T04:54:37;16.70;;;7.63;;
42200;SDS011;27869;51.442;7.540;2023-07-20T04:57:05;17.60;;;8.82;;
42200;SDS011;27869;51.442;7.540;2023-07-20T04:59:39;17.00;;;8.25;;
42200;SDS011;27869;51.442;7.540;2023-07-20T05:02:06;15.13;;;7.85;;
42200;SDS011;27869;51.442;7.540;2023-07-20T05:04:33;16.67;;;7.90;;
42200;SDS011;27869;51.442;7.540;2023-07-20T05:06:59;15.45;;;7.68;;
42200;SDS011;27869;51.442;7.540;2023-07-20T05:09:26;14.70;;;7.22;;
42200;SDS011;27869;51.442;7.540;2023-07-20T05:11:53;14.55;;;7.07;;
42200;SDS011;27869;51.442;7.540;2023-07-20T05:14:20;14.02;;;6.90;;
42200;SDS011;27869;51.442;7.540;2023-07-20T05:16:48;17.88;;;7.38;;
42200;SDS011;27869;51.442;7.540;2023-07-20T05:19:15;13.32;;;5.47;;
42200;SDS011;27869;51.442;7.540;2023-07-20T05:21:42;14.00;;;7.00;;
42200;SDS011;27869;51.442;7.540;2023-07-20T05:24:09;13.65;;;6.07;;
42200;SDS011;27869;51.442;7.540;2023-07-20T05:26:35;13.25;;;5.82;;
42200;SDS011;27869;51.442;7.540;2023-07-20T05:29:03;14.07;;;6.65;;
42200;SDS011;27869;51.442;7.540;2023-07-20T05:31:29;14.77;;;6.70;;
42200;SDS011;27869;51.442;7.540;2023-07-20T05:33:58;13.98;;;6.60;;
42200;SDS011;27869;51.442;7.540;2023-07-20T05:36:25;13.55;;;5.93;;
42200;SDS011;27869;51.442;7.540;2023-07-20T05:38:52;13.48;;;6.07;;
42200;SDS011;27869;51.442;7.540;2023-07-20T05:41:19;14.40;;;6.10;;
42200;SDS011;27869;51.442;7.540;2023-07-20T05:43:45;12.90;;;5.65;;
42200;SDS011;27869;51.442;7.540;2023-07-20T05:46:12;12.38;;;5.75;;
42200;SDS011;27869;51.442;7.540;2023-07-20T05:48:39;13.50;;;5.72;;
42200;SDS011;27869;51.442;7.540;2023-07-20T05:51:07;14.85;;;6.30;;
42200;SDS011;27869;51.442;7.540;2023-07-20T05:53:34;11.65;;;4.88;;
42200;SDS011;27869;51.442;7.540;2023-07-20T05:56:03;12.43;;;5.28;;
42200;SDS011;27869;51.442;7.540;2023-07-20T05:58:30;11.15;;;4.13;;
42200;SDS011;27869;51.442;7.540;2023-07-20T06:00:57;11.73;;;4.30;;
42200;SDS011;27869;51.442;7.540;2023-07-20T06:03:24;12.27;;;3.65;;
42200;SDS011;27869;51.442;7.540;2023-07-20T06:05:51;9.95;;;3.53;;
42200;SDS011;27869;51.442;7.540;2023-07-20T06:08:19;9.40;;;3.60;;
42200;SDS011;27869;51.442;7.540;2023-07-20T06:10:49;8.80;;;3.10;;
42200;SDS011;27869;51.442;7.540;2023-07-20T06:13:17;9.85;;;3.10;;
42200;SDS011;27869;51.442;7.540;2023-07-20T06:15:43;7.55;;;2.70;;
42200;SDS011;27869;51.442;7.540;2023-07-20T06:18:10;8.80;;;2.97;;
42200;SDS011;27869;51.442;7.540;2023-07-20T06:20:37;9.38;;;2.88;;
42200;SDS011;27869;51.442;7.540;2023-07-20T06:23:04;9.52;;;3.08;;
42200;SDS011;27869;51.442;7.540;2023-07-20T06:25:32;9.95;;;3.20;;
42200;SDS011;27869;51.442;7.540;2023-07-20T06:27:59;8.93;;;2.55;;
42200;SDS011;27869;51.442;7.540;2023-07-20T06:30:26;9.02;;;3.00;;
42200;SDS011;27869;51.442;7.540;2023-07-20T06:32:53;10.00;;;3.15;;
42200;SDS011;27869;51.442;7.540;2023-07-20T06:35:20;8.13;;;2.85;;
42200;SDS011;27869;51.442;7.540;2023-07-20T06:37:47;8.35;;;2.58;;
42200;SDS011;27869;51.442;7.540;2023-07-20T06:40:13;8.50;;;2.53;;
42200;SDS011;27869;51.442;7.540;2023-07-20T06:42:42;8.40;;;2.55;;
42200;SDS011;27869;51.442;7.540;2023-07-20T06:45:09;8.85;;;2.70;;
42200;SDS011;27869;51.442;7.540;2023-07-20T06:47:37;9.32;;;2.70;;
42200;SDS011;27869;51.442;7.540;2023-07-20T06:50:05;8.40;;;3.00;;
42200;SDS011;27869;51.442;7.540;2023-07-20T06:52:32;7.25;;;2.33;;
42200;SDS011;27869;51.442;7.540;2023-07-20T06:54:59;7.07;;;2.75;;
42200;SDS011;27869;51.442;7.540;2023-07-20T06:57:26;8.50;;;2.85;;
42200;SDS011;27869;51.442;7.540;2023-07-20T06:59:54;9.75;;;2.70;;
42200;SDS011;27869;51.442;7.540;2023-07-20T07:02:21;7.38;;;2.60;;
42200;SDS011;27869;51.442;7.540;2023-07-20T07:04:48;8.00;;;2.53;;
42200;SDS011;27869;51.442;7.540;2023-07-20T07:07:15;6.53;;;2.38;;
42200;SDS011;27869;51.442;7.540;2023-07-20T07:09:42;6.25;;;2.10;;
42200;SDS011;27869;51.442;7.540;2023-07-20T07:12:08;6.72;;;2.10;;
42200;SDS011;27869;51.442;7.540;2023-07-20T07:14:35;5.70;;;2.03;;
42200;SDS011;27869;51.442;7.540;2023-07-20T07:17:04;6.18;;;2.30;;
42200;SDS011;27869;51.442;7.540;2023-07-20T07:19:31;7.22;;;2.30;;
42200;SDS011;27869;51.442;7.540;2023-07-20T07:21:58;6.03;;;2.30;;
42200;SDS011;27869;51.442;7.540;2023-07-20T07:24:24;6.43;;;2.50;;
42200;SDS011;27869;51.442;7.540;2023-07-20T07:26:52;7.10;;;2.30;;
42200;SDS011;27869;51.442;7.540;2023-07-20T07:29:19;7.13;;;2.60;;
42200;SDS011;27869;51.442;7.540;2023-07-20T07:31:46;8.30;;;2.50;;
42200;SDS011;27869;51.442;7.540;2023-07-20T07:34:14;8.07;;;3.00;;
42200;SDS011;27869;51.442;7.540;2023-07-20T07:36:41;7.22;;;2.60;;
42200;SDS011;27869;51.442;7.540;2023-07-20T07:39:08;7.88;;;2.92;;
42200;SDS011;27869;51.442;7.540;2023-07-20T07:41:35;6.53;;;2.50;;
42200;SDS011;27869;51.442;7.540;2023-07-20T07:44:02;5.43;;;2.13;;
42200;SDS011;27869;51.442;7.540;2023-07-20T07:46:30;7.03;;;1.95;;
42200;SDS011;27869;51.442;7.540;2023-07-20T07:48:56;5.50;;;1.80;;
42200;SDS011;27869;51.442;7.540;2023-07-20T07:51:25;7.35;;;2.38;;
42200;SDS011;27869;51.442;7.540;2023-07-20T07:53:53;6.43;;;2.10;;
42200;SDS011;27869;51.442;7.540;2023-07-20T07:56:20;6.57;;;2.20;;
42200;SDS011;27869;51.442;7.540;2023-07-20T07:58:47;7.50;;;2.60;;
42200;SDS011;27869;51.442;7.540;2023-07-20T08:01:14;6.90;;;2.10;;
42200;SDS011;27869;51.442;7.540;2023-07-20T08:03:41;8.38;;;2.80;;
42200;SDS011;27869;51.442;7.540;2023-07-20T08:08:38;8.75;;;2.50;;
42200;SDS011;27869;51.442;7.540;2023-07-20T08:11:05;9.13;;;2.35;;
42200;SDS011;27869;51.442;7.540;2023-07-20T08:13:32;7.18;;;2.28;;
42200;SDS011;27869;51.442;7.540;2023-07-20T08:16:00;5.85;;;1.83;;
42200;SDS011;27869;51.442;7.540;2023-07-20T08:18:28;6.75;;;2.10;;
42200;SDS011;27869;51.442;7.540;2023-07-20T08:20:56;5.75;;;1.90;;
42200;SDS011;27869;51.442;7.540;2023-07-20T08:23:23;6.03;;;1.80;;
42200;SDS011;27869;51.442;7.540;2023-07-20T08:25:51;3.90;;;1.40;;
42200;SDS011;27869;51.442;7.540;2023-07-20T08:28:18;4.65;;;1.70;;
42200;SDS011;27869;51.442;7.540;2023-07-20T08:30:45;5.45;;;1.50;;
42200;SDS011;27869;51.442;7.540;2023-07-20T08:33:13;4.70;;;1.40;;
42200;SDS011;27869;51.442;7.540;2023-07-20T08:35:41;4.22;;;1.50;;
42200;SDS011;27869;51.442;7.540;2023-07-20T08:38:09;3.90;;;1.30;;
42200;SDS011;27869;51.442;7.540;2023-07-20T08:40:39;3.90;;;1.52;;
42200;SDS011;27869;51.442;7.540;2023-07-20T08:43:08;3.78;;;1.60;;
42200;SDS011;27869;51.442;7.540;2023-07-20T08:45:36;6.63;;;1.50;;
42200;SDS011;27869;51.442;7.540;2023-07-20T08:48:05;5.28;;;1.40;;
42200;SDS011;27869;51.442;7.540;2023-07-20T08:50:33;5.15;;;1.50;;
42200;SDS011;27869;51.442;7.540;2023-07-20T08:53:01;4.45;;;1.15;;
42200;SDS011;27869;51.442;7.540;2023-07-20T08:55:29;4.93;;;1.50;;
42200;SDS011;27869;51.442;7.540;2023-07-20T08:57:57;4.75;;;1.17;;
42200;SDS011;27869;51.442;7.540;2023-07-20T09:00:27;2.60;;;1.10;;
42200;SDS011;27869;51.442;7.540;2023-07-20T09:05:21;2.88;;;0.82;;
42200;SDS011;27869;51.442;7.540;2023-07-20T09:07:50;1.33;;;0.90;;
42200;SDS011;27869;51.442;7.540;2023-07-20T09:10:19;3.42;;;0.93;;
42200;SDS011;27869;51.442;7.540;2023-07-20T09:12:47;2.80;;;1.00;;
42200;SDS011;27869;51.442;7.540;2023-07-20T09:15:14;3.28;;;1.27;;
42200;SDS011;27869;51.442;7.540;2023-07-20T09:17:46;4.90;;;1.30;;
42200;SDS011;27869;51.442;7.540;2023-07-20T09:20:14;3.25;;;1.15;;
42200;SDS011;27869;51.442;7.540;2023-07-20T09:22:41;3.17;;;1.30;;
42200;SDS011;27869;51.442;7.540;2023-07-20T09:25:11;4.35;;;1.23;;
42200;SDS011;27869;51.442;7.540;2023-07-20T09:27:39;3.90;;;1.10;;
42200;SDS011;27869;51.442;7.540;2023-07-20T09:30:07;3.75;;;1.20;;
42200;SDS011;27869;51.442;7.540;2023-07-20T09:32:38;3.63;;;1.08;;
42200;SDS011;27869;51.442;7.540;2023-07-20T09:35:10;4.78;;;1.30;;
42200;SDS011;27869;51.442;7.540;2023-07-20T09:37:39;4.20;;;1.20;;
42200;SDS011;27869;51.442;7.540;2023-07-20T09:40:08;3.13;;;1.20;;
42200;SDS011;27869;51.442;7.540;2023-07-20T09:42:36;3.60;;;1.13;;
42200;SDS011;27869;51.442;7.540;2023-07-20T09:45:04;2.67;;;1.17;;
42200;SDS011;27869;51.442;7.540;2023-07-20T09:47:34;2.65;;;0.98;;
42200;SDS011;27869;51.442;7.540;2023-07-20T09:50:03;3.22;;;1.15;;
42200;SDS011;27869;51.442;7.540;2023-07-20T09:52:36;3.97;;;1.10;;
42200;SDS011;27869;51.442;7.540;2023-07-20T09:55:05;1.85;;;0.88;;
42200;SDS011;27869;51.442;7.540;2023-07-20T09:57:34;4.18;;;1.20;;
42200;SDS011;27869;51.442;7.540;2023-07-20T10:00:02;2.15;;;0.90;;
42200;SDS011;27869;51.442;7.540;2023-07-20T10:02:33;1.48;;;0.80;;
42200;SDS011;27869;51.442;7.540;2023-07-20T10:05:03;3.72;;;1.00;;
42200;SDS011;27869;51.442;7.540;2023-07-20T10:07:33;3.03;;;0.90;;
42200;SDS011;27869;51.442;7.540;2023-07-20T10:10:06;3.75;;;1.00;;
42200;SDS011;27869;51.442;7.540;2023-07-20T10:12:36;3.42;;;1.00;;
42200;SDS011;27869;51.442;7.540;2023-07-20T10:15:08;5.60;;;1.13;;
42200;SDS011;27869;51.442;7.540;2023-07-20T10:17:42;3.78;;;0.95;;
42200;SDS011;27869;51.442;7.540;2023-07-20T10:20:16;2.80;;;1.10;;
42200;SDS011;27869;51.442;7.540;2023-07-20T10:22:47;3.05;;;0.95;;
42200;SDS011;27869;51.442;7.540;2023-07-20T10:25:15;1.52;;;0.85;;
42200;SDS011;27869;51.442;7.540;2023-07-20T10:27:45;2.15;;;1.00;;
42200;SDS011;27869;51.442;7.540;2023-07-20T10:30:13;1.77;;;0.75;;
42200;SDS011;27869;51.442;7.540;2023-07-20T10:32:40;2.22;;;0.90;;
42200;SDS011;27869;51.442;7.540;2023-07-20T10:35:12;3.78;;;0.80;;
42200;SDS011;27869;51.442;7.540;2023-07-20T10:37:48;3.33;;;0.90;;
42200;SDS011;27869;51.442;7.540;2023-07-20T10:40:31;1.95;;;1.00;;
42200;SDS011;27869;51.442;7.540;2023-07-20T10:43:02;1.73;;;0.80;;
42200;SDS011;27869;51.442;7.540;2023-07-20T10:45:35;3.58;;;1.00;;
42200;SDS011;27869;51.442;7.540;2023-07-20T10:48:08;2.42;;;0.82;;
42200;SDS011;27869;51.442;7.540;2023-07-20T10:50:40;2.75;;;1.08;;
42200;SDS011;27869;51.442;7.540;2023-07-20T10:53:13;1.55;;;0.60;;
42200;SDS011;27869;51.442;7.540;2023-07-20T10:55:40;2.17;;;0.90;;
42200;SDS011;27869;51.442;7.540;2023-07-20T10:58:09;3.08;;;1.00;;
42200;SDS011;27869;51.442;7.540;2023-07-20T11:00:37;1.55;;;0.70;;
42200;SDS011;27869;51.442;7.540;2023-07-20T11:03:04;1.83;;;0.93;;
42200;SDS011;27869;51.442;7.540;2023-07-20T11:05:32;1.98;;;0.90;;
42200;SDS011;27869;51.442;7.540;2023-07-20T11:08:05;2.42;;;1.10;;
42200;SDS011;27869;51.442;7.540;2023-07-20T11:10:34;1.23;;;0.93;;
42200;SDS011;27869;51.442;7.540;2023-07-20T11:13:15;3.60;;;1.10;;
42200;SDS011;27869;51.442;7.540;2023-07-20T11:15:48;3.28;;;0.90;;
42200;SDS011;27869;51.442;7.540;2023-07-20T11:18:28;2.72;;;1.15;;
42200;SDS011;27869;51.442;7.540;2023-07-20T11:20:55;4.85;;;1.10;;
42200;SDS011;27869;51.442;7.540;2023-07-20T11:23:23;1.95;;;1.00;;
42200;SDS011;27869;51.442;7.540;2023-07-20T11:25:51;2.30;;;0.95;;
42200;SDS011;27869;51.442;7.540;2023-07-20T11:28:18;3.00;;;1.00;;
42200;SDS011;27869;51.442;7.540;2023-07-20T11:30:44;3.50;;;1.00;;
42200;SDS011;27869;51.442;7.540;2023-07-20T11:33:16;3.38;;;1.17;;
42200;SDS011;27869;51.442;7.540;2023-07-20T11:35:42;2.88;;;1.00;;
42200;SDS011;27869;51.442;7.540;2023-07-20T11:38:11;5.13;;;1.20;;
42200;SDS011;27869;51.442;7.540;2023-07-20T11:40:42;5.57;;;1.30;;
42200;SDS011;27869;51.442;7.540;2023-07-20T11:43:11;3.65;;;1.20;;
42200;SDS011;27869;51.442;7.540;2023-07-20T11:45:39;3.55;;;1.30;;
42200;SDS011;27869;51.442;7.540;2023-07-20T11:48:06;4.93;;;1.10;;
42200;SDS011;27869;51.442;7.540;2023-07-20T11:50:38;3.35;;;1.30;;
42200;SDS011;27869;51.442;7.540;2023-07-20T11:53:05;4.00;;;1.25;;
42200;SDS011;27869;51.442;7.540;2023-07-20T11:55:33;2.35;;;1.20;;
42200;SDS011;27869;51.442;7.540;2023-07-20T11:58:01;4.57;;;1.60;;
42200;SDS011;27869;51.442;7.540;2023-07-20T12:00:29;2.42;;;1.20;;
42200;SDS011;27869;51.442;7.540;2023-07-20T12:02:57;3.35;;;1.35;;
42200;SDS011;27869;51.442;7.540;2023-07-20T12:05:24;3.55;;;1.25;;
42200;SDS011;27869;51.442;7.540;2023-07-20T12:07:51;3.95;;;1.30;;
42200;SDS011;27869;51.442;7.540;2023-07-20T12:10:23;3.55;;;1.30;;
42200;SDS011;27869;51.442;7.540;2023-07-20T12:12:51;3.55;;;1.20;;
42200;SDS011;27869;51.442;7.540;2023-07-20T12:15:19;5.07;;;1.40;;
42200;SDS011;27869;51.442;7.540;2023-07-20T12:17:50;2.42;;;1.15;;
42200;SDS011;27869;51.442;7.540;2023-07-20T12:20:24;3.13;;;1.45;;
42200;SDS011;27869;51.442;7.540;2023-07-20T12:22:52;4.28;;;1.42;;
42200;SDS011;27869;51.442;7.540;2023-07-20T12:25:19;3.35;;;1.63;;
42200;SDS011;27869;51.442;7.540;2023-07-20T12:27:47;3.90;;;1.45;;
42200;SDS011;27869;51.442;7.540;2023-07-20T12:30:14;5.78;;;1.50;;
42200;SDS011;27869;51.442;7.540;2023-07-20T12:32:41;4.00;;;1.50;;
42200;SDS011;27869;51.442;7.540;2023-07-20T12:35:09;5.13;;;1.50;;
42200;SDS011;27869;51.442;7.540;2023-07-20T12:37:36;3.53;;;1.30;;
42200;SDS011;27869;51.442;7.540;2023-07-20T12:40:03;3.60;;;1.30;;
42200;SDS011;27869;51.442;7.540;2023-07-20T12:42:36;3.17;;;1.40;;
42200;SDS011;27869;51.442;7.540;2023-07-20T12:45:04;4.32;;;1.50;;
42200;SDS011;27869;51.442;7.540;2023-07-20T12:47:31;3.03;;;1.30;;
42200;SDS011;27869;51.442;7.540;2023-07-20T12:49:59;4.25;;;1.50;;
42200;SDS011;27869;51.442;7.540;2023-07-20T12:52:27;3.95;;;1.58;;
42200;SDS011;27869;51.442;7.540;2023-07-20T12:54:54;3.15;;;1.38;;
42200;SDS011;27869;51.442;7.540;2023-07-20T12:57:20;4.75;;;1.55;;
42200;SDS011;27869;51.442;7.540;2023-07-20T12:59:47;5.35;;;1.42;;
42200;SDS011;27869;51.442;7.540;2023-07-20T13:02:14;12.45;;;1.83;;
42200;SDS011;27869;51.442;7.540;2023-07-20T13:04:41;4.63;;;1.30;;
42200;SDS011;27869;51.442;7.540;2023-07-20T13:07:09;6.05;;;1.30;;
42200;SDS011;27869;51.442;7.540;2023-07-20T13:09:38;4.75;;;1.52;;
42200;SDS011;27869;51.442;7.540;2023-07-20T13:12:06;5.05;;;1.60;;
42200;SDS011;27869;51.442;7.540;2023-07-20T13:14:33;3.03;;;1.40;;
42200;SDS011;27869;51.442;7.540;2023-07-20T13:17:00;2.97;;;1.30;;
42200;SDS011;27869;51.442;7.540;2023-07-20T13:19:27;3.40;;;1.48;;
42200;SDS011;27869;51.442;7.540;2023-07-20T13:21:54;3.58;;;1.30;;
42200;SDS011;27869;51.442;7.540;2023-07-20T13:24:21;3.83;;;1.50;;
42200;SDS011;27869;51.442;7.540;2023-07-20T13:26:49;3.47;;;1.30;;
42200;SDS011;27869;51.442;7.540;2023-07-20T13:29:17;2.13;;;1.02;;
42200;SDS011;27869;51.442;7.540;2023-07-20T13:31:44;2.92;;;1.35;;
42200;SDS011;27869;51.442;7.540;2023-07-20T13:34:11;3.55;;;1.40;;
42200;SDS011;27869;51.442;7.540;2023-07-20T13:36:41;3.35;;;1.40;;
42200;SDS011;27869;51.442;7.540;2023-07-20T13:39:07;4.10;;;1.42;;
42200;SDS011;27869;51.442;7.540;2023-07-20T13:41:34;3.90;;;1.30;;
42200;SDS011;27869;51.442;7.540;2023-07-20T13:44:03;5.20;;;1.50;;
42200;SDS011;27869;51.442;7.540;2023-07-20T13:46:32;3.67;;;1.35;;
42200;SDS011;27869;51.442;7.540;2023-07-20T13:48:59;2.55;;;1.10;;
42200;SDS011;27869;51.442;7.540;2023-07-20T13:51:26;3.28;;;1.20;;
42200;SDS011;27869;51.442;7.540;2023-07-20T13:53:52;3.42;;;1.25;;
42200;SDS011;27869;51.442;7.540;2023-07-20T13:56:19;2.90;;;1.10;;
42200;SDS011;27869;51.442;7.540;2023-07-20T13:58:46;3.03;;;1.30;;
42200;SDS011;27869;51.442;7.540;2023-07-20T14:01:14;3.65;;;1.52;;
42200;SDS011;27869;51.442;7.540;2023-07-20T14:03:42;3.20;;;1.10;;
42200;SDS011;27869;51.442;7.540;2023-07-20T14:06:09;5.28;;;1.50;;
42200;SDS011;27869;51.442;7.540;2023-07-20T14:08:38;3.28;;;1.30;;
42200;SDS011;27869;51.442;7.540;2023-07-20T14:11:06;5.70;;;1.60;;
42200;SDS011;27869;51.442;7.540;2023-07-20T14:13:32;3.97;;;1.38;;
42200;SDS011;27869;51.442;7.540;2023-07-20T14:15:59;3.15;;;1.10;;
42200;SDS011;27869;51.442;7.540;2023-07-20T14:18:27;5.13;;;1.40;;
42200;SDS011;27869;51.442;7.540;2023-07-20T14:20:54;5.65;;;1.40;;
42200;SDS011;27869;51.442;7.540;2023-07-20T14:23:21;6.97;;;1.65;;
42200;SDS011;27869;51.442;7.540;2023-07-20T14:25:48;4.88;;;1.60;;
42200;SDS011;27869;51.442;7.540;2023-07-20T14:28:15;3.90;;;1.52;;
42200;SDS011;27869;51.442;7.540;2023-07-20T14:30:42;3.88;;;1.30;;
42200;SDS011;27869;51.442;7.540;2023-07-20T14:33:09;3.65;;;1.30;;
42200;SDS011;27869;51.442;7.540;2023-07-20T14:35:37;4.68;;;1.30;;
42200;SDS011;27869;51.442;7.540;2023-07-20T14:38:04;3.50;;;1.30;;
42200;SDS011;27869;51.442;7.540;2023-07-20T14:40:30;4.28;;;1.50;;
42200;SDS011;27869;51.442;7.540;2023-07-20T14:42:57;3.95;;;1.50;;
42200;SDS011;27869;51.442;7.540;2023-07-20T14:45:25;3.85;;;1.10;;
42200;SDS011;27869;51.442;7.540;2023-07-20T14:47:53;4.65;;;1.30;;
42200;SDS011;27869;51.442;7.540;2023-07-20T14:50:20;4.35;;;1.20;;
42200;SDS011;27869;51.442;7.540;2023-07-20T14:52:48;3.55;;;1.30;;
42200;SDS011;27869;51.442;7.540;2023-07-20T14:55:15;5.95;;;1.55;;
42200;SDS011;27869;51.442;7.540;2023-07-20T14:57:42;3.90;;;1.42;;
42200;SDS011;27869;51.442;7.540;2023-07-20T15:00:09;3.63;;;1.40;;